sensor_id;sensor_type;location;lat;lon;timestamp;temperature;humidity
67777;DHT22;54576;52.020;5.536;2023-12-29T00:02:08;11.20;99.90
67777;DHT22;54576;52.020;5.536;2023-12-29T00:04:33;11.30;99.90
67777;DHT22;54576;52.020;5.536;2023-12-29T00:06:59;11.30;99.90
67777;DHT22;54576;52.020;5.536;2023-12-29T00:09:24;11.30;99.90
67777;DHT22;54576;52.020;5.536;2023-12-29T00:11:51;11.30;99.90
67777;DHT22;54576;52.020;5.536;2023-12-29T00:14:17;11.30;99.90
67777;DHT22;54576;52.020;5.536;2023-12-29T00:16:42;11.30;99.90
67777;DHT22;54576;52.020;5.536;2023-12-29T00:19:09;11.30;99.90
67777;DHT22;54576;52.020;5.536;2023-12-29T00:21:36;11.20;99.90
67777;DHT22;54576;52.020;5.536;2023-12-29T00:24:01;11.10;99.90
67777;DHT22;54576;52.020;5.536;2023-12-29T00:26:27;11.00;99.90
67777;DHT22;54576;52.020;5.536;2023-12-29T00:28:54;10.90;99.90
67777;DHT22;54576;52.020;5.536;2023-12-29T00:31:19;10.90;99.90
67777;DHT22;54576;52.020;5.536;2023-12-29T00:33:45;10.90;99.90
67777;DHT22;54576;52.020;5.536;2023-12-29T00:36:17;10.90;99.90
67777;DHT22;54576;52.020;5.536;2023-12-29T00:38:43;10.90;99.90
67777;DHT22;54576;52.020;5.536;2023-12-29T00:41:09;10.90;99.90
67777;DHT22;54576;52.020;5.536;2023-12-29T00:43:35;11.00;99.90
67777;DHT22;54576;52.020;5.536;2023-12-29T00:46:07;11.00;99.90
67777;DHT22;54576;52.020;5.536;2023-12-29T00:48:36;11.00;99.90
67777;DHT22;54576;52.020;5.536;2023-12-29T00:51:03;11.00;99.90
67777;DHT22;54576;52.020;5.536;2023-12-29T00:53:29;11.10;99.90
67777;DHT22;54576;52.020;5.536;2023-12-29T00:55:57;11.10;99.90
67777;DHT22;54576;52.020;5.536;2023-12-29T00:58:23;11.10;99.90
67777;DHT22;54576;52.020;5.536;2023-12-29T01:00:48;11.10;99.90
67777;DHT22;54576;52.020;5.536;2023-12-29T01:03:14;11.10;99.90
67777;DHT22;54576;52.020;5.536;2023-12-29T01:05:39;11.10;99.90
67777;DHT22;54576;52.020;5.536;2023-12-29T01:08:05;11.20;99.90
67777;DHT22;54576;52.020;5.536;2023-12-29T01:10:30;11.10;99.90
67777;DHT22;54576;52.020;5.536;2023-12-29T01:12:57;11.20;99.90
67777;DHT22;54576;52.020;5.536;2023-12-29T01:15:23;11.10;99.90
67777;DHT22;54576;52.020;5.536;2023-12-29T01:17:48;11.10;99.90
67777;DHT22;54576;52.020;5.536;2023-12-29T01:20:14;11.10;99.90
67777;DHT22;54576;52.020;5.536;2023-12-29T01:22:39;11.20;99.90
67777;DHT22;54576;52.020;5.536;2023-12-29T01:25:05;11.10;99.90
67777;DHT22;54576;52.020;5.536;2023-12-29T01:27:31;11.20;99.90
67777;DHT22;54576;52.020;5.536;2023-12-29T01:29:56;11.20;99.90
67777;DHT22;54576;52.020;5.536;2023-12-29T01:32:22;11.20;99.90
67777;DHT22;54576;52.020;5.536;2023-12-29T01:34:48;11.20;99.90
67777;DHT22;54576;52.020;5.536;2023-12-29T01:37:13;11.20;99.90
67777;DHT22;54576;52.020;5.536;2023-12-29T01:39:39;11.20;99.90
67777;DHT22;54576;52.020;5.536;2023-12-29T01:42:08;11.20;99.90
67777;DHT22;54576;52.020;5.536;2023-12-29T01:44:33;11.20;99.90
67777;DHT22;54576;52.020;5.536;2023-12-29T01:47:00;11.20;99.90
67777;DHT22;54576;52.020;5.536;2023-12-29T01:49:27;11.20;99.90
67777;DHT22;54576;52.020;5.536;2023-12-29T01:51:57;11.10;99.90
67777;DHT22;54576;52.020;5.536;2023-12-29T01:54:26;11.10;99.90
67777;DHT22;54576;52.020;5.536;2023-12-29T01:56:54;11.10;99.90
67777;DHT22;54576;52.020;5.536;2023-12-29T01:59:22;11.10;99.90
67777;DHT22;54576;52.020;5.536;2023-12-29T02:01:48;11.10;99.90
67777;DHT22;54576;52.020;5.536;2023-12-29T02:04:17;11.10;99.90
67777;DHT22;54576;52.020;5.536;2023-12-29T02:06:43;11.10;99.90
67777;DHT22;54576;52.020;5.536;2023-12-29T02:09:08;11.10;99.90
67777;DHT22;54576;52.020;5.536;2023-12-29T02:11:34;11.10;99.90
67777;DHT22;54576;52.020;5.536;2023-12-29T02:14:00;11.10;99.90
67777;DHT22;54576;52.020;5.536;2023-12-29T02:18:55;11.10;99.90
67777;DHT22;54576;52.020;5.536;2023-12-29T02:21:25;11.10;99.90
67777;DHT22;54576;52.020;5.536;2023-12-29T02:23:50;11.00;99.90
67777;DHT22;54576;52.020;5.536;2023-12-29T02:26:16;11.00;99.90
67777;DHT22;54576;52.020;5.536;2023-12-29T02:28:45;11.00;99.90
67777;DHT22;54576;52.020;5.536;2023-12-29T02:31:18;11.00;99.90
67777;DHT22;54576;52.020;5.536;2023-12-29T02:33:45;10.90;99.90
67777;DHT22;54576;52.020;5.536;2023-12-29T02:36:13;10.90;99.90
67777;DHT22;54576;52.020;5.536;2023-12-29T02:38:41;10.90;99.90
67777;DHT22;54576;52.020;5.536;2023-12-29T02:41:07;10.90;99.90
67777;DHT22;54576;52.020;5.536;2023-12-29T02:43:32;10.80;99.90
67777;DHT22;54576;52.020;5.536;2023-12-29T02:45:58;10.80;99.90
67777;DHT22;54576;52.020;5.536;2023-12-29T02:48:24;10.80;99.90
67777;DHT22;54576;52.020;5.536;2023-12-29T02:50:49;10.70;99.90
67777;DHT22;54576;52.020;5.536;2023-12-29T02:53:15;10.60;99.90
67777;DHT22;54576;52.020;5.536;2023-12-29T02:55:43;10.50;99.90
67777;DHT22;54576;52.020;5.536;2023-12-29T02:58:09;10.50;99.90
67777;DHT22;54576;52.020;5.536;2023-12-29T03:00:34;10.40;99.90
67777;DHT22;54576;52.020;5.536;2023-12-29T03:03:00;10.40;99.90
67777;DHT22;54576;52.020;5.536;2023-12-29T03:05:26;10.40;99.90
67777;DHT22;54576;52.020;5.536;2023-12-29T03:07:51;10.30;99.90
67777;DHT22;54576;52.020;5.536;2023-12-29T03:10:17;10.30;99.90
67777;DHT22;54576;52.020;5.536;2023-12-29T03:12:42;10.30;99.90
67777;DHT22;54576;52.020;5.536;2023-12-29T03:15:08;10.30;99.90
67777;DHT22;54576;52.020;5.536;2023-12-29T03:17:34;10.30;99.90
67777;DHT22;54576;52.020;5.536;2023-12-29T03:20:00;10.30;99.90
67777;DHT22;54576;52.020;5.536;2023-12-29T03:22:26;10.40;99.90
67777;DHT22;54576;52.020;5.536;2023-12-29T03:24:51;10.40;99.90
67777;DHT22;54576;52.020;5.536;2023-12-29T03:27:17;10.40;99.90
67777;DHT22;54576;52.020;5.536;2023-12-29T03:29:43;10.40;99.90
67777;DHT22;54576;52.020;5.536;2023-12-29T03:32:08;10.40;99.90
67777;DHT22;54576;52.020;5.536;2023-12-29T03:34:34;10.40;99.90
67777;DHT22;54576;52.020;5.536;2023-12-29T03:36:59;10.40;99.90
67777;DHT22;54576;52.020;5.536;2023-12-29T03:39:25;10.40;99.90
67777;DHT22;54576;52.020;5.536;2023-12-29T03:41:50;10.40;99.90
67777;DHT22;54576;52.020;5.536;2023-12-29T03:44:16;10.40;99.90
67777;DHT22;54576;52.020;5.536;2023-12-29T03:46:43;10.40;99.90
67777;DHT22;54576;52.020;5.536;2023-12-29T03:49:09;10.40;99.90
67777;DHT22;54576;52.020;5.536;2023-12-29T03:51:34;10.40;99.90
67777;DHT22;54576;52.020;5.536;2023-12-29T03:54:00;10.40;99.90
67777;DHT22;54576;52.020;5.536;2023-12-29T03:56:26;10.30;99.90
67777;DHT22;54576;52.020;5.536;2023-12-29T03:58:52;10.20;99.90
67777;DHT22;54576;52.020;5.536;2023-12-29T04:01:18;10.20;99.90
67777;DHT22;54576;52.020;5.536;2023-12-29T04:03:45;10.20;99.90
67777;DHT22;54576;52.020;5.536;2023-12-29T04:06:10;10.10;99.90
67777;DHT22;54576;52.020;5.536;2023-12-29T04:08:37;10.10;99.90
67777;DHT22;54576;52.020;5.536;2023-12-29T04:11:03;10.10;99.90
67777;DHT22;54576;52.020;5.536;2023-12-29T04:13:29;10.10;99.90
67777;DHT22;54576;52.020;5.536;2023-12-29T04:15:55;10.10;99.90
67777;DHT22;54576;52.020;5.536;2023-12-29T04:18:22;10.10;99.90
67777;DHT22;54576;52.020;5.536;2023-12-29T04:20:48;10.10;99.90
67777;DHT22;54576;52.020;5.536;2023-12-29T04:23:13;10.10;99.90
67777;DHT22;54576;52.020;5.536;2023-12-29T04:25:39;10.00;99.90
67777;DHT22;54576;52.020;5.536;2023-12-29T04:28:06;10.10;99.90
67777;DHT22;54576;52.020;5.536;2023-12-29T04:30:33;10.00;99.90
67777;DHT22;54576;52.020;5.536;2023-12-29T04:32:59;10.00;99.90
67777;DHT22;54576;52.020;5.536;2023-12-29T04:35:24;10.00;99.90
67777;DHT22;54576;52.020;5.536;2023-12-29T04:37:50;10.00;99.90
67777;DHT22;54576;52.020;5.536;2023-12-29T04:40:16;10.00;99.90
67777;DHT22;54576;52.020;5.536;2023-12-29T04:42:42;10.00;99.90
67777;DHT22;54576;52.020;5.536;2023-12-29T04:45:07;10.10;99.90
67777;DHT22;54576;52.020;5.536;2023-12-29T04:47:33;10.10;99.90
67777;DHT22;54576;52.020;5.536;2023-12-29T04:49:59;10.10;99.90
67777;DHT22;54576;52.020;5.536;2023-12-29T04:52:24;10.10;99.90
67777;DHT22;54576;52.020;5.536;2023-12-29T04:54:50;10.10;99.90
67777;DHT22;54576;52.020;5.536;2023-12-29T04:57:16;10.10;99.90
67777;DHT22;54576;52.020;5.536;2023-12-29T04:59:41;10.10;99.90
67777;DHT22;54576;52.020;5.536;2023-12-29T05:02:07;10.10;99.90
67777;DHT22;54576;52.020;5.536;2023-12-29T05:04:32;10.20;99.90
67777;DHT22;54576;52.020;5.536;2023-12-29T05:06:58;10.20;99.90
67777;DHT22;54576;52.020;5.536;2023-12-29T05:09:24;10.20;99.90
67777;DHT22;54576;52.020;5.536;2023-12-29T05:11:50;10.20;99.90
67777;DHT22;54576;52.020;5.536;2023-12-29T05:14:15;10.20;99.90
67777;DHT22;54576;52.020;5.536;2023-12-29T05:16:42;10.20;99.90
67777;DHT22;54576;52.020;5.536;2023-12-29T05:19:07;10.20;99.90
67777;DHT22;54576;52.020;5.536;2023-12-29T05:21:33;10.20;99.90
67777;DHT22;54576;52.020;5.536;2023-12-29T05:24:00;10.20;99.90
67777;DHT22;54576;52.020;5.536;2023-12-29T05:26:25;10.20;99.90
67777;DHT22;54576;52.020;5.536;2023-12-29T05:28:51;10.20;99.90
67777;DHT22;54576;52.020;5.536;2023-12-29T05:31:17;10.20;99.90
67777;DHT22;54576;52.020;5.536;2023-12-29T05:33:45;10.20;99.90
67777;DHT22;54576;52.020;5.536;2023-12-29T05:36:11;10.20;99.90
67777;DHT22;54576;52.020;5.536;2023-12-29T05:38:38;10.20;99.90
67777;DHT22;54576;52.020;5.536;2023-12-29T05:41:05;10.20;99.90
67777;DHT22;54576;52.020;5.536;2023-12-29T05:43:32;10.30;99.90
67777;DHT22;54576;52.020;5.536;2023-12-29T05:45:58;10.30;99.90
67777;DHT22;54576;52.020;5.536;2023-12-29T05:48:24;10.30;99.90
67777;DHT22;54576;52.020;5.536;2023-12-29T05:50:50;10.30;99.90
67777;DHT22;54576;52.020;5.536;2023-12-29T05:53:16;10.30;99.90
67777;DHT22;54576;52.020;5.536;2023-12-29T05:55:44;10.30;99.90
67777;DHT22;54576;52.020;5.536;2023-12-29T05:58:10;10.30;99.90
67777;DHT22;54576;52.020;5.536;2023-12-29T06:00:38;10.30;99.90
67777;DHT22;54576;52.020;5.536;2023-12-29T06:03:05;10.30;99.90
67777;DHT22;54576;52.020;5.536;2023-12-29T06:05:31;10.30;99.90
67777;DHT22;54576;52.020;5.536;2023-12-29T06:07:57;10.20;99.90
67777;DHT22;54576;52.020;5.536;2023-12-29T06:10:22;10.20;99.90
67777;DHT22;54576;52.020;5.536;2023-12-29T06:12:49;10.20;99.90
67777;DHT22;54576;52.020;5.536;2023-12-29T06:15:15;10.20;99.90
67777;DHT22;54576;52.020;5.536;2023-12-29T06:17:41;10.20;99.90
67777;DHT22;54576;52.020;5.536;2023-12-29T06:20:08;10.20;99.90
67777;DHT22;54576;52.020;5.536;2023-12-29T06:22:39;10.20;99.90
67777;DHT22;54576;52.020;5.536;2023-12-29T06:25:09;10.20;99.90
67777;DHT22;54576;52.020;5.536;2023-12-29T06:27:36;10.20;99.90
67777;DHT22;54576;52.020;5.536;2023-12-29T06:30:05;10.20;99.90
67777;DHT22;54576;52.020;5.536;2023-12-29T06:32:31;10.20;99.90
67777;DHT22;54576;52.020;5.536;2023-12-29T06:34:56;10.20;99.90
67777;DHT22;54576;52.020;5.536;2023-12-29T06:37:22;10.20;99.90
67777;DHT22;54576;52.020;5.536;2023-12-29T06:39:48;10.20;99.90
67777;DHT22;54576;52.020;5.536;2023-12-29T06:42:16;10.20;99.90
67777;DHT22;54576;52.020;5.536;2023-12-29T06:44:42;10.20;99.90
67777;DHT22;54576;52.020;5.536;2023-12-29T06:47:07;10.20;99.90
67777;DHT22;54576;52.020;5.536;2023-12-29T06:49:36;10.20;99.90
67777;DHT22;54576;52.020;5.536;2023-12-29T06:52:02;10.20;99.90
67777;DHT22;54576;52.020;5.536;2023-12-29T06:54:28;10.20;99.90
67777;DHT22;54576;52.020;5.536;2023-12-29T06:56:53;10.30;99.90
67777;DHT22;54576;52.020;5.536;2023-12-29T06:59:19;10.30;99.90
67777;DHT22;54576;52.020;5.536;2023-12-29T07:01:48;10.20;99.90
67777;DHT22;54576;52.020;5.536;2023-12-29T07:04:14;10.20;99.90
67777;DHT22;54576;52.020;5.536;2023-12-29T07:06:41;10.20;99.90
67777;DHT22;54576;52.020;5.536;2023-12-29T07:09:07;10.20;99.90
67777;DHT22;54576;52.020;5.536;2023-12-29T07:11:34;10.20;99.90
67777;DHT22;54576;52.020;5.536;2023-12-29T07:13:59;10.10;99.90
67777;DHT22;54576;52.020;5.536;2023-12-29T07:16:25;10.10;99.90
67777;DHT22;54576;52.020;5.536;2023-12-29T07:18:51;10.10;99.90
67777;DHT22;54576;52.020;5.536;2023-12-29T07:21:17;10.10;99.90
67777;DHT22;54576;52.020;5.536;2023-12-29T07:23:43;10.10;99.90
67777;DHT22;54576;52.020;5.536;2023-12-29T07:26:09;10.10;99.90
67777;DHT22;54576;52.020;5.536;2023-12-29T07:28:35;10.10;99.90
67777;DHT22;54576;52.020;5.536;2023-12-29T07:31:01;10.10;99.90
67777;DHT22;54576;52.020;5.536;2023-12-29T07:33:27;10.00;99.90
67777;DHT22;54576;52.020;5.536;2023-12-29T07:35:53;10.00;99.90
67777;DHT22;54576;52.020;5.536;2023-12-29T07:38:18;10.00;99.90
67777;DHT22;54576;52.020;5.536;2023-12-29T07:40:44;10.00;99.90
67777;DHT22;54576;52.020;5.536;2023-12-29T07:43:13;10.00;99.90
67777;DHT22;54576;52.020;5.536;2023-12-29T07:45:38;9.90;99.90
67777;DHT22;54576;52.020;5.536;2023-12-29T07:48:04;9.90;99.90
67777;DHT22;54576;52.020;5.536;2023-12-29T07:50:30;9.80;99.90
67777;DHT22;54576;52.020;5.536;2023-12-29T07:52:59;9.80;99.90
67777;DHT22;54576;52.020;5.536;2023-12-29T07:55:28;9.80;99.90
67777;DHT22;54576;52.020;5.536;2023-12-29T07:57:54;9.80;99.90
67777;DHT22;54576;52.020;5.536;2023-12-29T08:00:19;9.80;99.90
67777;DHT22;54576;52.020;5.536;2023-12-29T08:02:45;9.80;99.90
67777;DHT22;54576;52.020;5.536;2023-12-29T08:05:10;9.80;99.90
67777;DHT22;54576;52.020;5.536;2023-12-29T08:07:36;9.80;99.90
67777;DHT22;54576;52.020;5.536;2023-12-29T08:10:06;9.80;99.90
67777;DHT22;54576;52.020;5.536;2023-12-29T08:12:32;9.80;99.90
67777;DHT22;54576;52.020;5.536;2023-12-29T08:15:02;9.80;99.90
67777;DHT22;54576;52.020;5.536;2023-12-29T08:17:28;9.90;99.90
67777;DHT22;54576;52.020;5.536;2023-12-29T08:19:54;9.90;99.90
67777;DHT22;54576;52.020;5.536;2023-12-29T08:22:20;9.90;99.90
67777;DHT22;54576;52.020;5.536;2023-12-29T08:24:46;9.90;99.90
67777;DHT22;54576;52.020;5.536;2023-12-29T08:27:12;9.90;99.90
67777;DHT22;54576;52.020;5.536;2023-12-29T08:29:38;9.90;99.90
67777;DHT22;54576;52.020;5.536;2023-12-29T08:32:04;10.00;99.90
67777;DHT22;54576;52.020;5.536;2023-12-29T08:34:30;10.00;99.90
67777;DHT22;54576;52.020;5.536;2023-12-29T08:36:55;10.00;99.90
67777;DHT22;54576;52.020;5.536;2023-12-29T08:39:21;10.00;99.90
67777;DHT22;54576;52.020;5.536;2023-12-29T08:41:47;10.00;99.90
67777;DHT22;54576;52.020;5.536;2023-12-29T08:44:15;10.00;99.90
67777;DHT22;54576;52.020;5.536;2023-12-29T08:46:41;10.10;99.90
67777;DHT22;54576;52.020;5.536;2023-12-29T08:49:06;10.10;99.90
67777;DHT22;54576;52.020;5.536;2023-12-29T08:51:35;10.10;99.90
67777;DHT22;54576;52.020;5.536;2023-12-29T08:54:00;10.10;99.90
67777;DHT22;54576;52.020;5.536;2023-12-29T08:56:26;10.10;99.90
67777;DHT22;54576;52.020;5.536;2023-12-29T08:58:53;10.10;99.90
67777;DHT22;54576;52.020;5.536;2023-12-29T09:01:18;10.10;99.90
67777;DHT22;54576;52.020;5.536;2023-12-29T09:03:44;10.20;99.90
67777;DHT22;54576;52.020;5.536;2023-12-29T09:06:10;10.20;99.90
67777;DHT22;54576;52.020;5.536;2023-12-29T09:08:35;10.20;99.90
67777;DHT22;54576;52.020;5.536;2023-12-29T09:11:01;10.20;99.90
67777;DHT22;54576;52.020;5.536;2023-12-29T09:13:27;10.30;99.90
67777;DHT22;54576;52.020;5.536;2023-12-29T09:15:54;10.30;99.90
67777;DHT22;54576;52.020;5.536;2023-12-29T09:18:20;10.30;99.90
67777;DHT22;54576;52.020;5.536;2023-12-29T09:20:45;10.30;99.90
67777;DHT22;54576;52.020;5.536;2023-12-29T09:23:11;10.40;99.90
67777;DHT22;54576;52.020;5.536;2023-12-29T09:25:37;10.40;99.90
67777;DHT22;54576;52.020;5.536;2023-12-29T09:28:02;10.40;99.90
67777;DHT22;54576;52.020;5.536;2023-12-29T09:30:28;10.40;99.90
67777;DHT22;54576;52.020;5.536;2023-12-29T09:32:53;10.50;99.90
67777;DHT22;54576;52.020;5.536;2023-12-29T09:35:19;10.50;99.90
67777;DHT22;54576;52.020;5.536;2023-12-29T09:37:49;10.60;99.90
67777;DHT22;54576;52.020;5.536;2023-12-29T09:40:15;10.60;99.90
67777;DHT22;54576;52.020;5.536;2023-12-29T09:42:43;10.60;99.90
67777;DHT22;54576;52.020;5.536;2023-12-29T09:45:11;10.70;99.90
67777;DHT22;54576;52.020;5.536;2023-12-29T09:47:40;10.70;99.90
67777;DHT22;54576;52.020;5.536;2023-12-29T09:50:10;10.70;99.90
67777;DHT22;54576;52.020;5.536;2023-12-29T09:52:37;10.70;99.90
67777;DHT22;54576;52.020;5.536;2023-12-29T09:55:05;10.70;99.90
67777;DHT22;54576;52.020;5.536;2023-12-29T09:57:33;10.80;99.90
67777;DHT22;54576;52.020;5.536;2023-12-29T09:59:59;10.80;99.90
67777;DHT22;54576;52.020;5.536;2023-12-29T10:02:24;10.90;99.90
67777;DHT22;54576;52.020;5.536;2023-12-29T10:04:50;10.90;99.90
67777;DHT22;54576;52.020;5.536;2023-12-29T10:07:24;10.90;99.90
67777;DHT22;54576;52.020;5.536;2023-12-29T10:09:53;11.00;99.90
67777;DHT22;54576;52.020;5.536;2023-12-29T10:12:19;11.00;99.90
67777;DHT22;54576;52.020;5.536;2023-12-29T10:15:04;11.00;99.90
67777;DHT22;54576;52.020;5.536;2023-12-29T10:18:00;11.00;99.90
67777;DHT22;54576;52.020;5.536;2023-12-29T10:23:08;11.10;99.90
67777;DHT22;54576;52.020;5.536;2023-12-29T10:25:38;11.10;99.90
67777;DHT22;54576;52.020;5.536;2023-12-29T10:28:05;11.10;99.90
67777;DHT22;54576;52.020;5.536;2023-12-29T10:30:32;11.10;99.90
67777;DHT22;54576;52.020;5.536;2023-12-29T10:32:57;11.10;99.90
67777;DHT22;54576;52.020;5.536;2023-12-29T10:35:25;11.10;99.90
67777;DHT22;54576;52.020;5.536;2023-12-29T10:37:51;11.10;99.90
67777;DHT22;54576;52.020;5.536;2023-12-29T10:40:18;11.10;99.90
67777;DHT22;54576;52.020;5.536;2023-12-29T10:42:56;11.20;99.90
67777;DHT22;54576;52.020;5.536;2023-12-29T10:45:23;11.20;99.90
67777;DHT22;54576;52.020;5.536;2023-12-29T10:47:51;11.30;99.90
67777;DHT22;54576;52.020;5.536;2023-12-29T10:50:17;11.30;99.90
67777;DHT22;54576;52.020;5.536;2023-12-29T10:55:10;11.40;99.90
67777;DHT22;54576;52.020;5.536;2023-12-29T10:57:37;11.40;99.90
67777;DHT22;54576;52.020;5.536;2023-12-29T11:00:03;11.40;99.90
67777;DHT22;54576;52.020;5.536;2023-12-29T11:02:29;11.40;99.90
67777;DHT22;54576;52.020;5.536;2023-12-29T11:05:05;11.40;99.90
67777;DHT22;54576;52.020;5.536;2023-12-29T11:07:32;11.30;99.90
67777;DHT22;54576;52.020;5.536;2023-12-29T11:10:01;11.30;99.90
67777;DHT22;54576;52.020;5.536;2023-12-29T11:12:32;11.30;99.90
67777;DHT22;54576;52.020;5.536;2023-12-29T11:14:59;11.30;99.90
67777;DHT22;54576;52.020;5.536;2023-12-29T11:17:26;11.40;99.90
67777;DHT22;54576;52.020;5.536;2023-12-29T11:19:52;11.30;99.90
67777;DHT22;54576;52.020;5.536;2023-12-29T11:22:18;11.30;99.90
67777;DHT22;54576;52.020;5.536;2023-12-29T11:24:48;11.40;99.90
67777;DHT22;54576;52.020;5.536;2023-12-29T11:29:41;11.40;99.90
67777;DHT22;54576;52.020;5.536;2023-12-29T11:32:12;11.40;99.90
67777;DHT22;54576;52.020;5.536;2023-12-29T11:34:53;11.40;99.90
67777;DHT22;54576;52.020;5.536;2023-12-29T11:40:19;11.50;99.90
67777;DHT22;54576;52.020;5.536;2023-12-29T11:42:45;11.50;99.90
67777;DHT22;54576;52.020;5.536;2023-12-29T11:45:33;11.50;99.90
67777;DHT22;54576;52.020;5.536;2023-12-29T11:48:02;11.50;99.90
67777;DHT22;54576;52.020;5.536;2023-12-29T11:52:55;11.50;99.90
67777;DHT22;54576;52.020;5.536;2023-12-29T11:55:21;11.60;99.90
67777;DHT22;54576;52.020;5.536;2023-12-29T11:57:47;11.60;99.90
67777;DHT22;54576;52.020;5.536;2023-12-29T12:00:13;11.60;99.90
67777;DHT22;54576;52.020;5.536;2023-12-29T12:02:39;11.60;99.90
67777;DHT22;54576;52.020;5.536;2023-12-29T12:05:05;11.60;99.90
67777;DHT22;54576;52.020;5.536;2023-12-29T12:12:45;11.60;99.90
67777;DHT22;54576;52.020;5.536;2023-12-29T12:17:52;11.60;99.90
67777;DHT22;54576;52.020;5.536;2023-12-29T12:20:18;11.60;99.90
67777;DHT22;54576;52.020;5.536;2023-12-29T12:22:44;11.60;99.90
67777;DHT22;54576;52.020;5.536;2023-12-29T12:25:12;11.60;99.90
67777;DHT22;54576;52.020;5.536;2023-12-29T12:27:38;11.60;99.90
67777;DHT22;54576;52.020;5.536;2023-12-29T12:30:07;11.60;99.90
67777;DHT22;54576;52.020;5.536;2023-12-29T12:32:35;11.70;99.90
67777;DHT22;54576;52.020;5.536;2023-12-29T12:35:01;11.80;99.90
67777;DHT22;54576;52.020;5.536;2023-12-29T12:37:29;11.80;99.90
67777;DHT22;54576;52.020;5.536;2023-12-29T12:39:54;11.70;99.90
67777;DHT22;54576;52.020;5.536;2023-12-29T12:42:21;11.70;99.90
67777;DHT22;54576;52.020;5.536;2023-12-29T12:47:26;11.70;99.90
67777;DHT22;54576;52.020;5.536;2023-12-29T12:49:52;11.70;99.90
67777;DHT22;54576;52.020;5.536;2023-12-29T12:52:24;11.70;99.90
67777;DHT22;54576;52.020;5.536;2023-12-29T12:54:53;11.70;99.90
67777;DHT22;54576;52.020;5.536;2023-12-29T12:57:20;11.70;99.90
67777;DHT22;54576;52.020;5.536;2023-12-29T12:59:46;11.70;99.90
67777;DHT22;54576;52.020;5.536;2023-12-29T13:02:12;11.70;99.90
67777;DHT22;54576;52.020;5.536;2023-12-29T13:04:40;11.70;99.90
67777;DHT22;54576;52.020;5.536;2023-12-29T13:07:07;11.70;99.90
67777;DHT22;54576;52.020;5.536;2023-12-29T13:09:32;11.70;99.90
67777;DHT22;54576;52.020;5.536;2023-12-29T13:12:14;11.70;99.90
67777;DHT22;54576;52.020;5.536;2023-12-29T13:14:41;11.70;99.90
67777;DHT22;54576;52.020;5.536;2023-12-29T13:17:11;11.70;99.90
67777;DHT22;54576;52.020;5.536;2023-12-29T13:19:37;11.70;99.90
67777;DHT22;54576;52.020;5.536;2023-12-29T13:22:15;11.70;99.90
67777;DHT22;54576;52.020;5.536;2023-12-29T13:24:45;11.60;99.90
67777;DHT22;54576;52.020;5.536;2023-12-29T13:27:11;11.60;99.90
67777;DHT22;54576;52.020;5.536;2023-12-29T13:29:38;11.60;99.90
67777;DHT22;54576;52.020;5.536;2023-12-29T13:32:15;11.60;99.90
67777;DHT22;54576;52.020;5.536;2023-12-29T13:34:52;11.60;99.90
67777;DHT22;54576;52.020;5.536;2023-12-29T13:39:58;11.50;99.90
67777;DHT22;54576;52.020;5.536;2023-12-29T13:42:29;11.50;99.90
67777;DHT22;54576;52.020;5.536;2023-12-29T13:44:57;11.50;99.90
67777;DHT22;54576;52.020;5.536;2023-12-29T13:47:24;11.50;99.90
67777;DHT22;54576;52.020;5.536;2023-12-29T13:49:50;11.50;99.90
67777;DHT22;54576;52.020;5.536;2023-12-29T13:52:16;11.50;99.90
67777;DHT22;54576;52.020;5.536;2023-12-29T13:54:44;11.50;99.90
67777;DHT22;54576;52.020;5.536;2023-12-29T13:57:10;11.50;99.90
67777;DHT22;54576;52.020;5.536;2023-12-29T13:59:36;11.50;99.90
67777;DHT22;54576;52.020;5.536;2023-12-29T14:02:19;11.40;99.90
67777;DHT22;54576;52.020;5.536;2023-12-29T14:04:46;11.40;99.90
67777;DHT22;54576;52.020;5.536;2023-12-29T14:07:12;11.40;99.90
67777;DHT22;54576;52.020;5.536;2023-12-29T14:09:39;11.40;99.90
67777;DHT22;54576;52.020;5.536;2023-12-29T14:12:05;11.30;99.90
67777;DHT22;54576;52.020;5.536;2023-12-29T14:14:31;11.30;99.90
67777;DHT22;54576;52.020;5.536;2023-12-29T14:16:57;11.30;99.90
67777;DHT22;54576;52.020;5.536;2023-12-29T14:19:22;11.30;99.90
67777;DHT22;54576;52.020;5.536;2023-12-29T14:21:53;11.30;99.90
67777;DHT22;54576;52.020;5.536;2023-12-29T14:24:19;11.30;99.90
67777;DHT22;54576;52.020;5.536;2023-12-29T14:29:17;11.30;99.90
67777;DHT22;54576;52.020;5.536;2023-12-29T14:31:44;11.20;99.90
67777;DHT22;54576;52.020;5.536;2023-12-29T14:34:10;11.20;99.90
67777;DHT22;54576;52.020;5.536;2023-12-29T14:36:37;11.10;99.90
67777;DHT22;54576;52.020;5.536;2023-12-29T14:39:04;11.10;99.90
67777;DHT22;54576;52.020;5.536;2023-12-29T14:41:30;11.10;99.90
67777;DHT22;54576;52.020;5.536;2023-12-29T14:43:56;11.10;99.90
67777;DHT22;54576;52.020;5.536;2023-12-29T14:46:22;11.10;99.90
67777;DHT22;54576;52.020;5.536;2023-12-29T14:48:48;11.00;99.90
67777;DHT22;54576;52.020;5.536;2023-12-29T14:51:14;10.90;99.90
67777;DHT22;54576;52.020;5.536;2023-12-29T14:53:44;10.80;99.90
67777;DHT22;54576;52.020;5.536;2023-12-29T14:56:10;10.70;99.90
67777;DHT22;54576;52.020;5.536;2023-12-29T14:58:36;10.60;99.90
67777;DHT22;54576;52.020;5.536;2023-12-29T15:01:02;10.50;99.90
67777;DHT22;54576;52.020;5.536;2023-12-29T15:03:28;10.40;99.90
67777;DHT22;54576;52.020;5.536;2023-12-29T15:05:54;10.30;99.90
67777;DHT22;54576;52.020;5.536;2023-12-29T15:08:20;10.20;99.90
67777;DHT22;54576;52.020;5.536;2023-12-29T15:10:45;10.10;99.90
67777;DHT22;54576;52.020;5.536;2023-12-29T15:13:12;10.00;99.90
67777;DHT22;54576;52.020;5.536;2023-12-29T15:15:37;9.90;99.90
67777;DHT22;54576;52.020;5.536;2023-12-29T15:18:03;9.80;99.90
67777;DHT22;54576;52.020;5.536;2023-12-29T15:20:29;9.80;99.90
67777;DHT22;54576;52.020;5.536;2023-12-29T15:22:55;9.80;99.90
67777;DHT22;54576;52.020;5.536;2023-12-29T15:25:21;9.90;99.90
67777;DHT22;54576;52.020;5.536;2023-12-29T15:27:48;9.90;99.90
67777;DHT22;54576;52.020;5.536;2023-12-29T15:30:14;9.80;99.90
67777;DHT22;54576;52.020;5.536;2023-12-29T15:32:40;9.80;99.90
67777;DHT22;54576;52.020;5.536;2023-12-29T15:35:05;9.90;99.90
67777;DHT22;54576;52.020;5.536;2023-12-29T15:37:32;9.90;99.90
67777;DHT22;54576;52.020;5.536;2023-12-29T15:39:57;9.80;99.90
67777;DHT22;54576;52.020;5.536;2023-12-29T15:42:25;9.90;99.90
67777;DHT22;54576;52.020;5.536;2023-12-29T15:44:52;9.90;99.90
67777;DHT22;54576;52.020;5.536;2023-12-29T15:47:18;9.90;99.90
67777;DHT22;54576;52.020;5.536;2023-12-29T15:49:43;9.90;99.90
67777;DHT22;54576;52.020;5.536;2023-12-29T15:52:09;9.80;99.90
67777;DHT22;54576;52.020;5.536;2023-12-29T15:54:34;9.80;99.90
67777;DHT22;54576;52.020;5.536;2023-12-29T15:57:00;9.80;99.90
67777;DHT22;54576;52.020;5.536;2023-12-29T15:59:28;9.80;99.90
67777;DHT22;54576;52.020;5.536;2023-12-29T16:01:56;9.80;99.90